Impacts TAF Board INFO
FOR SITUATIONAL AWARENESS. NOT TO BE USED FOR FLIGHT PLANNING PURPOSES.
IDs:

KSLC - Salt Lake City Intl, UT, US

Issued at 1135 UTC 22 Nov 2017
Updated at 1304 UTC 22 Nov 2017
Potential Impact None Slight Moderate High
Time1254Z 22/14Z 22/15Z 22/16Z 22/17Z 22/18Z 22/19Z 22/20Z 22/21Z 22/22Z 22/23Z 23/00Z 23/01Z 23/02Z>>
Type OBS PRVL PRVL PRVL PRVL PRVL PRVL PRVL PRVL PRVL PRVL PRVL PRVL PRVL
VIS 10 >6 >6 >6 >6 >6 >6 >6 >6 >6 >6 >6 >6 >6
CIG -- -- -- -- -- -- -- -- -- -- -- -- -- --
Cover SCT SCT SCT SCT SCT SCT SCT FEW FEW FEW FEW FEW FEW FEW
FltCat VFR VFR VFR VFR VFR VFR VFR VFR VFR VFR VFR VFR VFR VFR
WX -- -- -- -- -- -- -- -- -- -- -- -- -- --
WDir 130 150 150 150 150 150 150 330 330 330 330 330 330 330
WSpd 8 6 6 6 6 6 6 6 6 6 6 6 6 6
WGst -- -- -- -- -- -- -- -- -- -- -- -- -- --

Raw TAF
KSLC 221135Z 2212/2318 15006KT P6SM FEW120 SCT200
  FM222000 33006KT P6SM FEW200
  FM230300 15006KT P6SM BKN200


Raw METAR
KSLC 221254Z 13008KT 10SM FEW045 SCT085 SCT120 07/04 A3039 RMK AO2 SLP275 T00720039 $
KSLC 221154Z 12005KT 10SM FEW040 SCT070 SCT120 07/03 A3039 RMK AO2 SLP276 T00670033 10100 20067 51005 $
KSLC 221054Z 14006KT 10SM FEW040 FEW120 07/04 A3039 RMK AO2 SLP268 T00720039 $

METAR Board
Radar Display
Forecast Discussion

FOR SITUATIONAL AWARENESS. NOT TO BE USED FOR FLIGHT PLANNING PURPOSES.